createdAt,value
2023-04-25T00:03:08.752Z,999.085
2023-04-25T00:23:07.622Z,999.062
2023-04-25T00:43:07.682Z,999.074
2023-04-25T01:03:08.932Z,998.964
2023-04-25T01:23:07.917Z,998.953
2023-04-25T01:43:07.672Z,999.005
2023-04-25T02:03:08.937Z,999.062
2023-04-25T02:23:07.868Z,999.192
2023-04-25T02:43:07.801Z,999.289
2023-04-25T03:03:08.925Z,999.336
2023-04-25T03:23:07.716Z,999.473
2023-04-25T03:43:07.583Z,999.701
2023-04-25T04:03:08.777Z,1000.028
2023-04-25T04:23:07.750Z,1000.135
2023-04-25T04:43:07.840Z,1000.407
2023-04-25T05:03:09.136Z,1000.588
2023-04-25T05:23:07.948Z,1000.798
2023-04-25T05:43:07.850Z,1000.966
2023-04-25T06:03:09.644Z,1001.162
2023-04-25T06:23:07.398Z,1001.385
2023-04-25T06:43:07.394Z,1001.464
2023-04-25T07:03:08.713Z,1001.748
2023-04-25T07:23:07.640Z,1001.9
2023-04-25T07:43:07.525Z,1002.033
2023-04-25T08:03:09.200Z,1002.209
2023-04-25T08:23:07.117Z,1002.512
2023-04-25T08:43:07.918Z,1002.793
2023-04-25T09:03:09.851Z,1002.992
2023-04-25T09:23:07.846Z,1003.285
2023-04-25T09:43:07.744Z,1003.444
2023-04-25T10:03:09.107Z,1003.393
2023-04-25T10:23:07.911Z,1003.599
2023-04-25T10:43:07.840Z,1003.764
2023-04-25T11:03:09.217Z,1003.74
2023-04-25T11:23:07.072Z,1003.793
2023-04-25T11:43:07.926Z,1003.938
2023-04-25T12:03:09.542Z,1004.109
2023-04-25T12:23:07.602Z,1004.213
2023-04-25T12:43:07.435Z,1004.311
2023-04-25T13:03:08.966Z,1004.248
2023-04-25T13:23:07.922Z,1004.263
2023-04-25T13:43:07.981Z,1004.365
2023-04-25T14:03:10.188Z,1004.605
2023-04-25T14:23:07.221Z,1004.793
2023-04-25T14:43:07.281Z,1005.188
2023-04-25T15:03:08.832Z,1005.211
2023-04-25T15:23:07.802Z,1005.131
2023-04-25T15:43:07.841Z,1005.297
2023-04-25T16:03:09.505Z,1005.386
2023-04-25T16:23:07.608Z,1005.617
2023-04-25T16:43:08.001Z,1005.477
2023-04-25T17:03:09.617Z,1005.632
2023-04-25T17:23:07.583Z,1005.695
2023-04-25T17:43:07.613Z,1005.926
2023-04-25T18:03:09.029Z,1005.977
2023-04-25T18:23:07.917Z,1006.241
2023-04-25T18:43:07.880Z,1006.612
2023-04-25T19:03:09.412Z,1006.846
2023-04-25T19:23:07.377Z,1007.095
2023-04-25T19:43:07.493Z,1007.183
2023-04-25T20:03:11.826Z,1007.261
2023-04-25T20:23:07.713Z,1007.504
2023-04-25T20:43:07.871Z,1007.512
2023-04-25T21:03:09.379Z,1007.598
2023-04-25T21:23:07.545Z,1007.601
2023-04-25T21:43:07.553Z,1007.63
2023-04-25T22:03:09.184Z,1007.663
2023-04-25T22:23:08.160Z,1007.852
2023-04-25T22:43:07.889Z,1008.064
2023-04-25T23:03:09.124Z,1008.337
2023-04-25T23:23:08.056Z,1008.39
2023-04-25T23:43:08.032Z,1008.462
